Time;durP1;ratioP1;P1;durP2;ratioP2;P2;SDS_P1;SDS_P2;PMS_P1;PMS_P2;Temp;Humidity;BMP_temperature;BMP_pressure;BME280_temperature;BME280_humidity;BME280_pressure;Samples;Min_cycle;Max_cycle;Signal;HPM_P1;HPM_P2
2021/11/27 00:00:19;;;;;;;4.28;1.10;;;;;;;8.70;49.61;92387.53;5016017;28;20021;-75
2021/11/27 00:02:44;;;;;;;1.10;0.90;;;;;;;8.90;49.69;92419.16;5003932;28;20037;-75
2021/11/27 00:05:11;;;;;;;0.95;0.75;;;;;;;8.94;49.65;92419.28;5013519;28;20038;-75
2021/11/27 00:07:37;;;;;;;0.70;0.70;;;;;;;8.86;49.83;92428.91;5010716;28;20042;-75
2021/11/27 00:10:04;;;;;;;0.70;0.70;;;;;;;8.72;50.41;92464.81;5006726;28;20170;-75
2021/11/27 00:12:33;;;;;;;0.50;0.50;;;;;;;8.69;49.92;92413.28;5009054;28;20038;-75
2021/11/27 00:14:59;;;;;;;0.75;0.70;;;;;;;8.64;49.67;92392.31;5012865;28;20030;-75
2021/11/27 00:17:24;;;;;;;0.90;0.90;;;;;;;8.84;49.42;92438.31;5008535;28;20018;-76
2021/11/27 00:19:51;;;;;;;3.60;2.00;;;;;;;8.92;49.76;92474.53;5010255;28;20030;-75
2021/11/27 00:22:17;;;;;;;0.93;0.70;;;;;;;9.09;49.17;92461.00;5011864;28;20081;-75
2021/11/27 00:24:42;;;;;;;0.73;0.73;;;;;;;8.73;50.28;92445.16;5015133;28;20251;-75
2021/11/27 00:27:08;;;;;;;0.70;0.70;;;;;;;8.92;49.06;92450.66;5013306;28;20034;-75
2021/11/27 00:29:34;;;;;;;0.95;0.70;;;;;;;9.37;48.21;92477.75;5015404;28;20030;-75
2021/11/27 00:31:59;;;;;;;2.22;1.10;;;;;;;9.03;48.76;92457.81;5011482;28;20085;-75
2021/11/27 00:34:24;;;;;;;0.80;0.80;;;;;;;9.09;49.12;92461.00;5004077;28;20038;-75
2021/11/27 00:36:52;;;;;;;0.70;0.70;;;;;;;9.05;49.31;92462.78;5009104;28;20041;-76
2021/11/27 00:39:17;;;;;;;2.55;1.10;;;;;;;9.16;48.62;92453.28;5011237;28;20034;-75
2021/11/27 00:41:43;;;;;;;0.70;0.70;;;;;;;9.23;48.62;92487.97;5006328;28;20089;-74
2021/11/27 00:44:09;;;;;;;0.70;0.70;;;;;;;9.02;49.20;92479.34;5013855;28;20034;-75
2021/11/27 00:46:34;;;;;;;2.08;0.73;;;;;;;9.16;49.61;92445.31;4998434;28;20369;-74
2021/11/27 00:49:00;;;;;;;1.08;0.90;;;;;;;9.18;49.65;92448.41;5003236;28;20040;-74
2021/11/27 00:51:26;;;;;;;0.85;0.80;;;;;;;9.08;50.13;92424.22;5010488;28;20062;-75
2021/11/27 00:53:52;;;;;;;0.60;0.60;;;;;;;9.29;49.15;92438.84;5008054;28;20022;-75
2021/11/27 00:56:19;;;;;;;0.70;0.70;;;;;;;9.23;49.90;92442.88;5006168;28;20033;-74
2021/11/27 00:58:45;;;;;;;0.75;0.75;;;;;;;9.34;49.82;92459.09;5011005;28;20610;-74
2021/11/27 01:01:18;;;;;;;0.63;0.60;;;;;;;9.08;50.26;92451.50;4998687;28;20153;-74
2021/11/27 01:03:45;;;;;;;2.58;0.90;;;;;;;9.06;50.71;92463.53;5009473;28;20042;-74
2021/11/27 01:06:11;;;;;;;0.88;0.77;;;;;;;9.19;50.62;92460.56;5001231;28;20046;-74
2021/11/27 01:08:37;;;;;;;0.88;0.70;;;;;;;9.18;49.75;92480.25;5021386;28;20030;-74
2021/11/27 01:11:13;;;;;;;1.23;0.80;;;;;;;9.18;50.49;92484.78;5001580;28;20038;-74
2021/11/27 01:13:42;;;;;;;0.70;0.70;;;;;;;9.20;50.61;92471.94;4996318;28;20041;-74
2021/11/27 01:16:08;;;;;;;0.90;0.80;;;;;;;9.15;50.85;92483.56;4995618;28;20046;-74
2021/11/27 01:18:35;;;;;;;0.80;0.80;;;;;;;9.00;50.90;92489.53;4996036;28;22903;-74
2021/11/27 01:21:05;;;;;;;0.70;0.70;;;;;;;9.32;50.20;92479.88;5002209;28;20045;-75
2021/11/27 01:23:31;;;;;;;0.70;0.70;;;;;;;9.41;49.99;92483.16;5005171;28;20038;-74
2021/11/27 01:25:56;;;;;;;0.80;0.80;;;;;;;9.02;50.35;92429.75;4996899;28;20524;-75
2021/11/27 01:28:23;;;;;;;0.80;0.80;;;;;;;9.51;49.99;92460.66;5008227;28;20041;-75
2021/11/27 01:30:52;;;;;;;0.90;0.90;;;;;;;9.37;50.27;92455.75;5011179;28;20251;-75
2021/11/27 01:33:19;;;;;;;0.90;0.90;;;;;;;9.38;50.11;92447.47;5008589;28;20041;-75
2021/11/27 01:35:45;;;;;;;1.25;1.00;;;;;;;9.60;49.74;92470.03;5000601;28;20038;-75
2021/11/27 01:38:11;;;;;;;0.77;0.73;;;;;;;9.58;49.70;92450.25;5005412;28;20034;-75
2021/11/27 01:40:37;;;;;;;2.92;0.77;;;;;;;9.50;49.94;92454.59;5003714;28;20038;-75
2021/11/27 01:43:03;;;;;;;0.70;0.70;;;;;;;9.45;49.67;92439.69;5017537;28;20428;-75
2021/11/27 01:45:29;;;;;;;1.52;0.77;;;;;;;9.57;49.50;92448.69;5004471;28;20034;-75
2021/11/27 01:48:00;;;;;;;0.90;0.73;;;;;;;9.57;49.12;92419.50;5006552;28;20036;-74
2021/11/27 01:50:30;;;;;;;0.98;0.90;;;;;;;9.53;49.57;92432.69;5002195;28;20037;-75
2021/11/27 01:52:55;;;;;;;0.95;0.90;;;;;;;9.55;49.49;92408.44;5027552;28;20046;-74
2021/11/27 01:55:22;;;;;;;0.90;0.80;;;;;;;9.30;50.00;92435.09;5006047;28;20061;-74
2021/11/27 01:57:47;;;;;;;0.80;0.80;;;;;;;9.33;49.76;92428.34;5002701;28;20580;-74
2021/11/27 02:00:17;;;;;;;1.70;0.90;;;;;;;9.23;50.38;92431.50;5009947;28;20445;-74
2021/11/27 02:02:44;;;;;;;1.00;1.00;;;;;;;9.36;50.09;92428.44;5007147;28;20029;-74
2021/11/27 02:05:10;;;;;;;0.90;0.90;;;;;;;9.52;50.02;92446.28;4995527;28;20049;-74
2021/11/27 02:07:37;;;;;;;0.73;0.73;;;;;;;9.19;50.14;92412.06;4995628;28;20042;-74
2021/11/27 02:10:05;;;;;;;0.70;0.70;;;;;;;9.38;50.30;92417.50;4997422;28;20038;-74
2021/11/27 02:12:30;;;;;;;0.73;0.73;;;;;;;9.41;50.10;92414.16;5002834;28;20144;-74
2021/11/27 02:14:56;;;;;;;0.70;0.70;;;;;;;9.40;49.94;92392.16;4997964;28;20084;-73
2021/11/27 02:17:21;;;;;;;0.70;0.70;;;;;;;9.78;49.11;92412.09;5003242;28;20038;-74
2021/11/27 02:19:47;;;;;;;0.90;0.65;;;;;;;9.65;48.86;92437.94;4999355;28;20357;-74
2021/11/27 02:22:13;;;;;;;0.70;0.70;;;;;;;9.26;50.04;92428.16;5001835;28;20030;-73
2021/11/27 02:24:40;;;;;;;0.73;0.65;;;;;;;9.57;49.75;92422.16;5003114;28;20030;-73
2021/11/27 02:27:05;;;;;;;0.80;0.80;;;;;;;9.22;49.97;92401.53;5003638;28;20352;-74
2021/11/27 02:29:33;;;;;;;0.82;0.82;;;;;;;9.28;49.99;92425.94;5000820;28;20041;-74
2021/11/27 02:31:59;;;;;;;0.98;0.90;;;;;;;9.42;49.80;92426.31;4996146;28;20092;-74
2021/11/27 02:34:26;;;;;;;0.70;0.70;;;;;;;9.56;49.96;92447.16;5005148;28;20045;-74
2021/11/27 02:36:56;;;;;;;0.70;0.70;;;;;;;9.34;51.49;92420.03;5005722;28;20056;-74
2021/11/27 02:39:22;;;;;;;2.28;0.93;;;;;;;9.32;51.04;92453.34;5005907;28;20443;-74
2021/11/27 02:41:52;;;;;;;0.98;0.85;;;;;;;9.33;50.64;92423.81;5005599;28;20018;-74
2021/11/27 02:44:18;;;;;;;1.00;0.90;;;;;;;9.16;50.97;92386.19;5003388;28;20046;-74
2021/11/27 02:46:43;;;;;;;0.68;0.68;;;;;;;9.33;50.78;92434.44;5002038;28;20458;-74
2021/11/27 02:49:09;;;;;;;0.70;0.70;;;;;;;9.09;50.28;92362.13;5005601;28;20072;-74
2021/11/27 02:51:35;;;;;;;0.80;0.75;;;;;;;9.24;50.95;92377.34;5002647;28;20050;-74
2021/11/27 02:54:01;;;;;;;0.82;0.77;;;;;;;9.12;50.84;92378.16;5008326;28;20018;-74
2021/11/27 02:56:26;;;;;;;0.75;0.73;;;;;;;8.70;50.31;92308.03;5005580;28;20108;-74
2021/11/27 02:58:52;;;;;;;1.02;1.00;;;;;;;9.07;50.25;92357.16;5018290;28;20952;-75
2021/11/27 03:01:18;;;;;;;0.80;0.80;;;;;;;8.81;50.66;92309.06;5018306;28;20570;-75
2021/11/27 03:03:43;;;;;;;0.77;0.77;;;;;;;8.89;50.74;92302.88;5006031;28;20041;-75
2021/11/27 03:06:09;;;;;;;0.70;0.70;;;;;;;8.79;50.92;92292.75;4998074;28;20128;-74
2021/11/27 03:08:35;;;;;;;1.05;0.80;;;;;;;8.85;50.43;92294.06;5004210;28;20098;-74
2021/11/27 03:11:02;;;;;;;0.80;0.80;;;;;;;8.68;50.32;92302.28;5006615;28;20038;-74
2021/11/27 03:13:31;;;;;;;1.55;0.90;;;;;;;8.70;50.92;92319.41;5008662;28;20126;-74
2021/11/27 03:15:57;;;;;;;1.10;0.90;;;;;;;7.93;51.00;92210.13;5006047;28;20257;-74
2021/11/27 03:18:23;;;;;;;1.52;0.90;;;;;;;8.68;50.75;92328.78;5006354;28;20508;-75
2021/11/27 03:20:51;;;;;;;0.80;0.80;;;;;;;8.87;50.62;92350.16;5012594;28;20078;-75
2021/11/27 03:23:16;;;;;;;0.70;0.70;;;;;;;8.61;50.61;92328.59;5015221;28;20084;-74
2021/11/27 03:25:42;;;;;;;1.00;0.80;;;;;;;8.62;50.46;92315.00;5004608;28;20499;-74
2021/11/27 03:28:07;;;;;;;1.00;1.00;;;;;;;8.76;50.76;92365.75;5007365;28;20049;-75
2021/11/27 03:30:33;;;;;;;0.90;0.70;;;;;;;8.70;50.42;92337.19;5002216;28;20042;-74
2021/11/27 03:32:59;;;;;;;1.48;0.82;;;;;;;8.69;51.08;92362.13;5010327;28;20092;-75
2021/11/27 03:35:24;;;;;;;1.27;1.02;;;;;;;8.65;51.50;92346.16;5023558;28;20481;-74
2021/11/27 03:37:51;;;;;;;1.48;0.90;;;;;;;8.87;51.12;92390.69;5007988;28;20046;-75
2021/11/27 03:40:18;;;;;;;0.80;0.80;;;;;;;8.94;51.02;92406.81;5007924;28;20081;-74
2021/11/27 03:42:44;;;;;;;2.22;0.90;;;;;;;8.93;51.11;92410.56;5008650;28;20046;-75
2021/11/27 03:45:12;;;;;;;1.30;1.08;;;;;;;8.88;50.44;92394.13;5008900;28;20045;-75
2021/11/27 03:48:12;;;;;;;0.80;0.80;;;;;;;8.88;50.91;92417.97;5006975;28;20125;-75
2021/11/27 03:50:47;;;;;;;1.02;1.00;;;;;;;8.76;51.04;92410.81;5005476;28;20046;-75
2021/11/27 03:53:14;;;;;;;;;;;;;;;8.89;50.67;92415.00;5007662;28;20098;-74
2021/11/27 03:55:39;;;;;;;1.10;0.90;;;;;;;8.74;50.80;92407.75;5002308;28;19983;-75
2021/11/27 03:58:06;;;;;;;0.93;0.90;;;;;;;8.98;50.94;92433.41;5007373;28;20034;-75
2021/11/27 04:00:31;;;;;;;4.30;1.05;;;;;;;8.94;50.77;92433.31;5005709;28;20736;-75
2021/11/27 04:02:57;;;;;;;2.55;1.10;;;;;;;8.90;50.62;92455.53;5008454;28;20026;-74
2021/11/27 04:05:23;;;;;;;0.95;0.95;;;;;;;8.75;50.94;92446.41;5007038;28;20022;-74
2021/11/27 04:07:54;;;;;;;0.70;0.70;;;;;;;8.93;50.91;92484.03;5002318;28;20054;-75
2021/11/27 04:10:20;;;;;;;0.75;0.75;;;;;;;8.88;50.69;92455.09;5008457;28;20106;-74
2021/11/27 04:12:45;;;;;;;1.75;1.00;;;;;;;8.94;50.66;92474.97;5004758;28;20057;-74
2021/11/27 04:15:11;;;;;;;0.80;0.80;;;;;;;8.64;50.79;92447.94;5005872;28;20078;-74
2021/11/27 04:17:37;;;;;;;1.00;1.00;;;;;;;9.01;50.57;92488.41;5002464;28;20030;-75
2021/11/27 04:20:03;;;;;;;0.88;0.88;;;;;;;9.00;50.76;92474.38;5010628;28;20038;-74
2021/11/27 04:22:29;;;;;;;0.98;0.90;;;;;;;9.16;50.67;92494.94;5020773;28;20097;-74
2021/11/27 04:24:54;;;;;;;0.75;0.75;;;;;;;9.24;50.45;92489.50;5005407;28;20159;-75
2021/11/27 04:27:20;;;;;;;1.02;0.93;;;;;;;9.03;50.25;92472.97;5006540;28;20037;-75
2021/11/27 04:29:45;;;;;;;0.90;0.90;;;;;;;8.98;51.06;92475.84;5005831;28;20038;-74
2021/11/27 04:32:11;;;;;;;1.17;0.95;;;;;;;9.02;50.50;92488.09;5010258;28;20742;-74
2021/11/27 04:34:37;;;;;;;0.98;0.90;;;;;;;9.09;50.65;92490.19;5005573;28;20034;-74
2021/11/27 04:37:02;;;;;;;0.80;0.80;;;;;;;9.05;50.11;92475.28;5011086;28;20042;-74
2021/11/27 04:39:28;;;;;;;0.73;0.73;;;;;;;9.22;49.65;92486.41;5002013;28;20083;-74
2021/11/27 04:41:53;;;;;;;0.80;0.80;;;;;;;9.15;50.22;92512.72;5006893;28;20080;-74
2021/11/27 04:44:18;;;;;;;0.95;0.95;;;;;;;9.10;50.62;92491.72;5009365;28;20109;-74
2021/11/27 04:46:44;;;;;;;0.80;0.80;;;;;;;9.15;50.61;92486.19;5003154;28;20060;-74
2021/11/27 04:49:09;;;;;;;0.80;0.80;;;;;;;9.28;50.44;92474.47;5004106;28;20080;-74
2021/11/27 04:51:35;;;;;;;0.82;0.82;;;;;;;9.26;50.11;92468.72;5012823;28;20268;-74
2021/11/27 04:54:00;;;;;;;0.80;0.80;;;;;;;9.49;49.71;92494.75;5004181;28;20032;-74
2021/11/27 04:56:26;;;;;;;0.98;0.95;;;;;;;9.29;49.88;92507.81;5005434;28;20038;-75
2021/11/27 04:58:51;;;;;;;0.82;0.82;;;;;;;9.23;50.10;92509.19;5003013;28;20038;-74
2021/11/27 05:01:18;;;;;;;0.80;0.80;;;;;;;9.07;50.53;92489.75;5007075;28;20161;-74
2021/11/27 05:03:43;;;;;;;1.00;0.90;;;;;;;9.21;50.35;92490.16;5001378;28;20030;-74
2021/11/27 05:06:08;;;;;;;4.13;0.73;;;;;;;8.87;50.73;92472.09;5004457;28;20060;-74
2021/11/27 05:08:34;;;;;;;0.95;0.90;;;;;;;8.95;50.63;92487.88;5004748;28;20040;-74
2021/11/27 05:10:59;;;;;;;3.03;0.93;;;;;;;8.97;50.88;92490.97;5003292;28;20042;-74
2021/11/27 05:13:25;;;;;;;1.92;1.00;;;;;;;9.04;50.48;92477.16;5007122;28;20057;-74
2021/11/27 05:15:50;;;;;;;1.05;0.77;;;;;;;8.81;50.42;92465.47;5011090;28;20049;-74
2021/11/27 05:18:16;;;;;;;1.88;0.90;;;;;;;8.87;50.88;92514.50;5003178;28;20041;-74
2021/11/27 05:20:41;;;;;;;1.00;0.93;;;;;;;8.97;50.63;92532.63;5003735;28;20022;-74
2021/11/27 05:23:07;;;;;;;1.02;0.98;;;;;;;8.96;50.91;92533.72;5005580;28;20088;-74
2021/11/27 05:25:33;;;;;;;1.35;1.00;;;;;;;8.90;50.85;92527.13;5003086;28;20042;-75
2021/11/27 05:27:59;;;;;;;0.70;0.70;;;;;;;8.84;51.03;92529.22;5008419;28;20606;-75
2021/11/27 05:30:27;;;;;;;1.08;0.90;;;;;;;8.94;51.40;92528.78;5015871;28;20074;-75
2021/11/27 05:35:24;;;;;;;1.00;0.98;;;;;;;8.75;51.97;92554.28;5007235;28;20105;-74
2021/11/27 05:37:49;;;;;;;0.80;0.80;;;;;;;8.85;51.35;92546.66;5003268;28;20069;-75
2021/11/27 05:40:15;;;;;;;2.33;1.10;;;;;;;8.82;51.80;92559.81;5007017;28;20049;-75
2021/11/27 05:42:43;;;;;;;0.93;0.90;;;;;;;8.89;51.78;92552.09;5000947;28;20181;-75
2021/11/27 05:45:09;;;;;;;0.75;0.75;;;;;;;8.89;51.74;92574.06;4998635;28;20026;-74
2021/11/27 05:47:34;;;;;;;0.80;0.80;;;;;;;8.51;51.56;92507.38;5012668;28;20061;-74
2021/11/27 05:50:00;;;;;;;0.90;0.90;;;;;;;9.00;51.23;92550.50;5005220;28;20053;-76
2021/11/27 05:52:26;;;;;;;1.63;0.90;;;;;;;9.09;51.38;92563.66;5008787;28;20058;-74
2021/11/27 05:54:51;;;;;;;0.70;0.70;;;;;;;9.02;50.88;92545.66;5008386;28;20042;-74
2021/11/27 05:57:17;;;;;;;0.80;0.80;;;;;;;8.79;51.83;92563.13;5001925;28;20046;-74
2021/11/27 05:59:42;;;;;;;0.80;0.80;;;;;;;8.76;52.12;92566.41;5008658;28;20037;-74
2021/11/27 06:02:08;;;;;;;0.82;0.82;;;;;;;8.88;52.35;92577.03;5000945;28;20042;-74
2021/11/27 06:04:33;;;;;;;1.95;0.80;;;;;;;8.93;52.08;92587.44;5004147;28;20048;-74
2021/11/27 06:06:59;;;;;;;0.82;0.82;;;;;;;8.37;52.07;92505.03;5005945;28;20459;-74
2021/11/27 06:09:25;;;;;;;0.70;0.70;;;;;;;8.96;51.96;92584.88;5003753;28;20141;-74
2021/11/27 06:11:50;;;;;;;5.43;1.10;;;;;;;8.99;52.06;92583.47;5010182;28;20030;-74
2021/11/27 06:14:16;;;;;;;0.85;0.80;;;;;;;8.91;51.68;92571.06;4999931;28;20132;-74
2021/11/27 06:16:42;;;;;;;4.55;0.80;;;;;;;8.97;51.45;92596.25;5002048;28;20236;-74
2021/11/27 06:19:07;;;;;;;1.55;1.10;;;;;;;8.75;51.86;92557.72;5005520;28;20048;-74
2021/11/27 06:21:33;;;;;;;1.23;1.13;;;;;;;9.21;51.35;92628.09;5002905;28;20045;-75
2021/11/27 06:23:59;;;;;;;0.73;0.73;;;;;;;9.26;51.27;92616.50;5006647;28;20036;-75
2021/11/27 06:26:25;;;;;;;2.88;0.90;;;;;;;9.24;51.14;92606.22;5008401;28;20034;-74
2021/11/27 06:28:51;;;;;;;1.00;0.90;;;;;;;9.37;51.04;92628.22;5001254;28;20035;-74
2021/11/27 06:31:16;;;;;;;1.02;0.90;;;;;;;9.28;50.75;92622.25;5003071;28;20424;-74
2021/11/27 06:33:43;;;;;;;5.97;1.55;;;;;;;9.11;50.55;92595.91;5003001;28;20084;-74
2021/11/27 06:36:09;;;;;;;1.67;1.00;;;;;;;9.31;50.58;92610.97;5001766;28;20102;-74
2021/11/27 06:38:35;;;;;;;1.02;1.00;;;;;;;9.34;51.03;92611.06;5009515;28;20096;-75
2021/11/27 06:41:01;;;;;;;0.77;0.77;;;;;;;9.23;50.50;92588.78;5020346;28;20030;-75
2021/11/27 06:43:27;;;;;;;0.95;0.95;;;;;;;9.24;50.34;92595.59;5018885;28;20056;-76
2021/11/27 06:45:52;;;;;;;2.45;0.80;;;;;;;9.32;50.29;92613.28;5009178;28;20133;-75
2021/11/27 06:48:18;;;;;;;2.03;0.98;;;;;;;9.26;50.29;92608.53;5018354;28;20051;-74
2021/11/27 06:50:44;;;;;;;0.90;0.90;;;;;;;9.49;49.85;92632.75;5012735;28;20022;-75
2021/11/27 06:53:10;;;;;;;1.50;0.80;;;;;;;9.49;49.67;92643.38;5009960;28;20550;-75
2021/11/27 06:55:36;;;;;;;0.80;0.80;;;;;;;9.47;49.86;92656.94;5009817;28;20084;-75
2021/11/27 06:58:02;;;;;;;1.50;1.10;;;;;;;9.60;49.48;92649.75;5016451;28;20119;-75
2021/11/27 07:00:27;;;;;;;0.85;0.85;;;;;;;9.53;49.39;92628.31;5012990;28;20030;-75
2021/11/27 07:02:53;;;;;;;1.10;1.00;;;;;;;9.42;49.77;92639.38;5013989;28;20030;-75
2021/11/27 07:05:18;;;;;;;1.75;1.27;;;;;;;9.37;49.92;92630.88;5016849;28;20022;-75
2021/11/27 07:07:43;;;;;;;0.88;0.88;;;;;;;9.46;49.83;92671.31;5013567;28;20046;-75
2021/11/27 07:10:09;;;;;;;1.60;0.93;;;;;;;9.47;49.41;92629.63;5012105;28;20070;-75
2021/11/27 07:12:35;;;;;;;1.10;1.00;;;;;;;9.43;49.93;92646.25;5009576;28;21076;-76
2021/11/27 07:15:02;;;;;;;1.77;1.08;;;;;;;9.54;49.66;92667.75;5003236;28;20056;-75
2021/11/27 07:17:30;;;;;;;1.13;1.00;;;;;;;9.57;49.61;92656.50;5011290;28;20113;-75
2021/11/27 07:19:56;;;;;;;1.02;1.00;;;;;;;9.64;49.31;92638.13;5000209;28;20128;-75
2021/11/27 07:22:22;;;;;;;0.80;0.80;;;;;;;9.62;49.31;92647.53;5007788;28;20052;-75
2021/11/27 07:24:47;;;;;;;1.70;1.15;;;;;;;9.71;49.05;92646.31;5007717;28;20035;-75
2021/11/27 07:27:12;;;;;;;1.08;0.95;;;;;;;9.37;49.13;92618.38;5003327;28;20301;-75
2021/11/27 07:29:39;;;;;;;1.50;1.20;;;;;;;9.59;49.21;92648.19;5006707;28;20025;-75
2021/11/27 07:32:05;;;;;;;1.30;1.00;;;;;;;9.61;49.83;92638.03;5003738;28;20864;-76
2021/11/27 07:34:31;;;;;;;0.93;0.80;;;;;;;9.59;49.34;92622.41;5002908;28;20096;-74
2021/11/27 07:36:57;;;;;;;1.08;0.82;;;;;;;9.73;48.63;92675.19;5006532;28;20042;-74
2021/11/27 07:39:22;;;;;;;0.85;0.85;;;;;;;9.86;48.70;92631.56;4996427;28;20196;-75
2021/11/27 07:41:47;;;;;;;2.97;0.80;;;;;;;9.82;48.26;92639.44;5001775;28;20761;-74
2021/11/27 07:44:13;;;;;;;1.13;0.70;;;;;;;9.71;48.53;92646.31;5009258;28;20034;-74
2021/11/27 07:46:38;;;;;;;1.75;0.93;;;;;;;9.79;48.82;92636.66;5009226;28;20055;-74
2021/11/27 07:49:04;;;;;;;2.83;1.60;;;;;;;9.98;47.98;92708.53;5011185;28;20041;-74
2021/11/27 07:51:30;;;;;;;1.38;1.02;;;;;;;9.88;48.25;92666.50;5006405;28;20353;-74
2021/11/27 07:53:57;;;;;;;4.13;0.70;;;;;;;10.12;48.03;92677.06;5005627;28;20040;-75
2021/11/27 07:56:23;;;;;;;0.98;0.90;;;;;;;10.05;47.90;92666.25;5009359;28;20033;-75
2021/11/27 07:58:48;;;;;;;0.80;0.80;;;;;;;10.15;47.61;92687.03;5006985;28;20030;-75
2021/11/27 08:01:14;;;;;;;2.22;0.90;;;;;;;10.06;48.04;92659.81;5007574;28;20512;-75
2021/11/27 08:03:40;;;;;;;0.63;0.63;;;;;;;10.07;47.97;92665.91;5009141;28;20042;-75
2021/11/27 08:06:05;;;;;;;0.80;0.80;;;;;;;9.95;48.29;92658.75;5005384;28;20029;-75
2021/11/27 08:08:31;;;;;;;1.23;0.90;;;;;;;9.86;48.23;92658.09;5007323;28;20050;-74
2021/11/27 08:10:56;;;;;;;1.20;1.00;;;;;;;10.23;48.17;92682.66;5008579;28;20062;-74
2021/11/27 08:13:22;;;;;;;1.23;0.93;;;;;;;10.28;48.31;92677.88;5007017;28;20110;-75
2021/11/27 08:15:48;;;;;;;0.90;0.90;;;;;;;10.22;48.04;92678.50;5011922;28;20054;-75
2021/11/27 08:18:13;;;;;;;1.00;0.90;;;;;;;10.16;48.35;92688.56;5007527;28;20037;-75
2021/11/27 08:20:39;;;;;;;1.15;1.00;;;;;;;10.10;48.15;92711.16;5005881;28;20025;-75
2021/11/27 08:23:08;;;;;;;1.10;1.00;;;;;;;10.25;47.94;92691.88;5007218;28;20072;-75
2021/11/27 08:25:34;;;;;;;1.38;1.05;;;;;;;10.31;48.02;92674.56;5005951;28;20038;-75
2021/11/27 08:28:02;;;;;;;1.25;1.00;;;;;;;10.35;48.05;92689.84;5006942;28;20282;-75
2021/11/27 08:30:27;;;;;;;1.90;0.90;;;;;;;10.48;47.92;92678.84;5020166;28;20402;-75
2021/11/27 08:32:54;;;;;;;1.77;1.00;;;;;;;10.43;47.86;92691.59;5004443;28;20029;-75
2021/11/27 08:35:20;;;;;;;1.00;1.00;;;;;;;10.35;47.80;92697.81;5021643;28;20019;-75
2021/11/27 08:37:45;;;;;;;1.10;0.95;;;;;;;10.47;48.13;92698.56;5005382;28;20291;-75
2021/11/27 08:40:12;;;;;;;2.30;1.20;;;;;;;10.49;47.39;92680.38;5009568;28;20029;-75
2021/11/27 08:42:37;;;;;;;0.80;0.80;;;;;;;10.67;47.04;92702.91;5005905;28;20042;-75
2021/11/27 08:45:04;;;;;;;2.22;1.60;;;;;;;10.43;47.07;92680.97;5008251;28;20057;-76
2021/11/27 08:47:30;;;;;;;2.00;1.02;;;;;;;10.57;46.88;92678.69;5009052;28;20077;-75
2021/11/27 08:49:56;;;;;;;4.60;2.08;;;;;;;10.62;46.93;92728.94;5003579;28;20046;-75
2021/11/27 08:52:22;;;;;;;0.95;0.88;;;;;;;10.61;46.90;92717.53;5011700;28;20030;-75
2021/11/27 08:54:48;;;;;;;0.90;0.90;;;;;;;10.68;46.86;92730.25;5006663;28;20081;-75
2021/11/27 08:57:13;;;;;;;0.88;0.88;;;;;;;10.54;47.08;92697.97;5021792;28;20044;-75
2021/11/27 08:59:39;;;;;;;1.38;0.90;;;;;;;10.69;47.21;92732.59;5003338;28;20110;-75
2021/11/27 09:02:05;;;;;;;1.05;0.90;;;;;;;10.90;47.16;92727.06;5004981;28;20428;-74
2021/11/27 09:04:31;;;;;;;1.10;1.00;;;;;;;10.96;46.88;92709.72;5001617;28;20050;-75
2021/11/27 09:06:56;;;;;;;0.85;0.85;;;;;;;10.84;46.64;92715.13;5004036;28;20069;-75
2021/11/27 09:09:22;;;;;;;1.00;0.90;;;;;;;10.89;46.46;92717.53;5004670;28;20772;-75
2021/11/27 09:11:49;;;;;;;0.80;0.80;;;;;;;10.83;46.14;92710.91;5005607;28;20045;-75
2021/11/27 09:14:16;;;;;;;1.38;0.90;;;;;;;10.89;46.24;92704.25;5008467;28;21123;-75
2021/11/27 09:16:42;;;;;;;3.35;1.15;;;;;;;10.98;46.74;92701.41;5001110;28;20034;-75
2021/11/27 09:19:08;;;;;;;1.45;1.00;;;;;;;11.00;46.27;92689.31;4999865;28;20069;-74
2021/11/27 09:21:34;;;;;;;0.80;0.80;;;;;;;11.29;46.18;92717.41;5003056;28;20039;-75
2021/11/27 09:24:02;;;;;;;1.00;0.90;;;;;;;10.90;46.28;92692.50;5004656;28;20271;-74
2021/11/27 09:26:28;;;;;;;2.45;1.00;;;;;;;11.27;45.81;92695.69;5004593;28;20048;-75
2021/11/27 09:28:54;;;;;;;3.63;1.27;;;;;;;11.24;46.87;92722.22;4999313;28;20074;-75
2021/11/27 09:31:19;;;;;;;1.23;0.90;;;;;;;11.12;45.64;92697.22;4995156;28;20050;-74
2021/11/27 09:33:45;;;;;;;1.23;1.00;;;;;;;11.41;45.41;92711.22;4999867;28;20037;-75
2021/11/27 09:36:14;;;;;;;0.90;0.90;;;;;;;11.41;45.07;92713.88;4993253;28;20057;-75
2021/11/27 09:38:40;;;;;;;1.20;1.10;;;;;;;11.31;44.68;92687.78;5002389;28;20022;-75
2021/11/27 09:41:23;;;;;;;3.83;1.25;;;;;;;11.41;44.90;92719.19;5000124;28;20066;-75
2021/11/27 09:43:50;;;;;;;1.13;1.00;;;;;;;11.05;44.55;92681.06;5002730;28;20026;-74
2021/11/27 09:46:19;;;;;;;1.92;1.17;;;;;;;11.48;44.28;92720.16;5002248;28;20034;-74
2021/11/27 09:48:48;;;;;;;0.90;0.90;;;;;;;11.66;43.98;92723.25;5003461;28;20057;-74
2021/11/27 09:51:15;;;;;;;1.10;1.00;;;;;;;11.63;44.20;92702.66;5001945;28;20034;-74
2021/11/27 09:53:41;;;;;;;2.25;1.10;;;;;;;11.55;44.21;92703.59;5003209;28;20512;-75
2021/11/27 09:56:07;;;;;;;1.55;1.40;;;;;;;11.79;43.57;92714.03;5003627;28;20104;-75
2021/11/27 09:58:33;;;;;;;1.50;1.00;;;;;;;11.85;43.49;92699.34;4998243;28;20679;-74
2021/11/27 10:01:01;;;;;;;1.20;1.10;;;;;;;11.82;43.22;92696.59;5002969;28;20129;-74
2021/11/27 10:03:29;;;;;;;2.42;0.90;;;;;;;11.59;43.34;92691.91;4999077;28;20590;-74
2021/11/27 10:05:54;;;;;;;2.17;1.10;;;;;;;11.62;43.39;92687.78;4996373;28;20030;-74
2021/11/27 10:08:20;;;;;;;1.70;1.17;;;;;;;11.26;43.83;92626.81;5003258;28;20085;-74
2021/11/27 10:10:45;;;;;;;2.33;0.90;;;;;;;11.57;43.82;92648.88;5000017;28;20431;-75
2021/11/27 10:13:15;;;;;;;0.90;0.90;;;;;;;11.74;43.35;92670.91;5001652;28;20110;-75
2021/11/27 10:15:41;;;;;;;1.08;1.00;;;;;;;11.96;44.75;92663.03;4998550;28;20046;-75
2021/11/27 10:18:21;;;;;;;0.85;0.85;;;;;;;12.03;42.62;92647.19;5000224;28;20024;-75
2021/11/27 10:20:47;;;;;;;0.80;0.80;;;;;;;12.27;43.67;92656.06;5001997;28;20089;-74
2021/11/27 10:23:13;;;;;;;1.20;1.10;;;;;;;12.62;42.55;92679.97;5003964;28;20046;-75
2021/11/27 10:25:41;;;;;;;1.40;0.88;;;;;;;12.77;42.44;92666.56;5003383;28;20128;-75
2021/11/27 10:28:14;;;;;;;1.13;0.80;;;;;;;12.93;41.51;92661.13;5019707;28;20029;-75
2021/11/27 10:30:45;;;;;;;1.23;1.13;;;;;;;13.28;40.81;92685.00;4999709;28;20038;-75
2021/11/27 10:33:11;;;;;;;0.98;0.88;;;;;;;13.33;40.54;92680.13;5003533;28;20034;-75
2021/11/27 10:35:59;;;;;;;1.92;0.82;;;;;;;13.58;39.98;92682.41;5001265;28;20026;-75
2021/11/27 10:38:39;;;;;;;1.65;1.15;;;;;;;13.16;39.78;92682.47;5004276;28;20049;-75
2021/11/27 10:41:06;;;;;;;1.17;0.93;;;;;;;12.97;40.12;92679.88;4998482;28;20027;-74
2021/11/27 10:43:33;;;;;;;2.13;0.90;;;;;;;13.29;40.02;92657.16;5001176;28;20136;-75
2021/11/27 10:45:58;;;;;;;1.05;0.85;;;;;;;13.25;40.18;92675.03;4999269;28;20034;-74
2021/11/27 10:48:25;;;;;;;0.77;0.77;;;;;;;12.39;40.78;92629.25;5000408;28;20045;-74
2021/11/27 10:50:59;;;;;;;0.95;0.88;;;;;;;12.64;40.84;92638.50;4999153;28;20117;-74
2021/11/27 10:53:31;;;;;;;2.22;1.15;;;;;;;13.21;41.04;92668.84;5004508;28;20042;-74
2021/11/27 10:56:08;;;;;;;1.00;0.90;;;;;;;13.23;39.70;92634.56;5000812;28;20049;-74
2021/11/27 10:59:00;;;;;;;1.00;1.00;;;;;;;13.09;39.87;92651.13;4992019;28;20037;-75
2021/11/27 11:01:27;;;;;;;1.08;0.90;;;;;;;13.17;40.07;92625.31;4999620;28;20042;-74
2021/11/27 11:03:53;;;;;;;1.85;0.90;;;;;;;13.53;40.79;92608.69;4987734;28;20216;-75
2021/11/27 11:06:24;;;;;;;1.45;1.05;;;;;;;13.73;39.58;92618.19;5000513;28;20560;-75
2021/11/27 11:08:51;;;;;;;2.78;0.90;;;;;;;13.81;39.08;92615.59;5000347;28;20109;-75
2021/11/27 11:11:20;;;;;;;1.52;1.10;;;;;;;13.32;39.08;92611.06;4997306;28;20709;-75
2021/11/27 11:13:52;;;;;;;0.90;0.90;;;;;;;12.56;39.93;92599.47;5019160;28;20060;-74
2021/11/27 11:16:17;;;;;;;2.25;1.15;;;;;;;12.59;40.07;92564.13;5001048;28;20042;-75
2021/11/27 11:18:43;;;;;;;2.78;0.90;;;;;;;12.85;40.06;92568.75;5008104;28;20029;-75
2021/11/27 11:21:09;;;;;;;1.40;0.80;;;;;;;13.11;41.52;92568.00;5007383;28;20512;-75
2021/11/27 11:23:37;;;;;;;0.95;0.85;;;;;;;13.56;40.25;92593.84;5011520;28;20038;-75
2021/11/27 11:26:06;;;;;;;1.35;0.90;;;;;;;13.55;39.81;92582.38;5029722;28;20105;-75
2021/11/27 11:28:47;;;;;;;0.88;0.88;;;;;;;12.86;39.96;92581.72;5006448;28;20041;-75
2021/11/27 11:31:19;;;;;;;1.95;1.20;;;;;;;13.09;38.92;92604.97;5013281;28;20057;-76
2021/11/27 11:33:48;;;;;;;1.90;0.90;;;;;;;12.82;39.33;92572.91;5013119;28;20045;-75
2021/11/27 11:36:15;;;;;;;1.55;0.80;;;;;;;12.86;39.58;92596.94;5003472;28;20053;-75
2021/11/27 11:38:46;;;;;;;2.70;1.08;;;;;;;13.11;39.77;92592.03;5005669;28;20030;-74